Terminal Aerodrome Forecast
Issued by NWS

Home | Current Version | Previous Version | Text Only | Print | Product List | Glossary On
Versions: 1 2 3 4 5 6 7 8 9 10 11 12 13 14 15
000
FTUS46 KMTR 271725
TAFSTS
TAF
KSTS 271725Z 2718/2818 19005KT P6SM SKC
     FM272100 19010KT P6SM SKC
     FM280600 17003KT P6SM OVC015
     FM281000 00000KT P6SM OVC007
     FM281300 00000KT 4SM BR OVC003
     FM281630 VRB03KT P6SM SKC=

USA.gov is the U.S. government's official web portal to all federal, state and local government web resources and services.